createdAt,value
2022-12-05T00:01:21.933Z,85.60
2022-12-05T00:04:27.752Z,85.70
2022-12-05T00:07:31.557Z,85.70
2022-12-05T00:10:37.905Z,85.70
2022-12-05T00:13:42.081Z,85.80
2022-12-05T00:16:45.970Z,85.70
2022-12-05T00:19:56.576Z,85.80
2022-12-05T00:23:03.982Z,85.80
2022-12-05T00:26:08.453Z,85.80
2022-12-05T00:29:12.259Z,85.90
2022-12-05T00:32:15.786Z,85.90
2022-12-05T00:35:21.469Z,85.90
2022-12-05T00:38:25.207Z,85.80
2022-12-05T00:41:30.754Z,85.90
2022-12-05T00:44:34.580Z,85.90
2022-12-05T00:47:38.482Z,85.90
2022-12-05T00:50:44.142Z,85.90
2022-12-05T00:53:48.807Z,85.80
2022-12-05T00:56:55.621Z,85.90
2022-12-05T00:59:59.520Z,85.90
2022-12-05T01:03:03.472Z,86.00
2022-12-05T01:06:09.999Z,86.00
2022-12-05T01:09:15.695Z,86.00
2022-12-05T01:12:19.371Z,86.10
2022-12-05T01:15:23.104Z,86.10
2022-12-05T01:18:27.349Z,86.10
2022-12-05T01:21:33.325Z,86.10
2022-12-05T01:24:37.320Z,86.10
2022-12-05T01:27:41.240Z,86.10
2022-12-05T01:30:45.891Z,86.10
2022-12-05T01:33:49.893Z,86.10
2022-12-05T01:36:55.754Z,86.10
2022-12-05T01:39:59.852Z,86.10
2022-12-05T01:43:04.414Z,86.10
2022-12-05T01:46:08.347Z,86.20
2022-12-05T01:49:15.582Z,86.20
2022-12-05T01:52:25.082Z,86.10
2022-12-05T01:55:29.418Z,86.20
2022-12-05T01:58:37.363Z,86.20
2022-12-05T02:01:42.302Z,86.20
2022-12-05T02:04:51.772Z,86.20
2022-12-05T02:07:59.215Z,86.20
2022-12-05T02:11:03.195Z,86.30
2022-12-05T02:14:17.326Z,86.20
2022-12-05T02:17:24.817Z,86.30
2022-12-05T02:20:40.545Z,86.30
2022-12-05T02:24:07.465Z,86.20
2022-12-05T02:27:31.235Z,86.20
2022-12-05T02:30:41.612Z,86.30
2022-12-05T02:33:50.278Z,86.30
2022-12-05T02:36:58.535Z,86.30
2022-12-05T02:40:11.193Z,86.30
2022-12-05T02:43:21.075Z,86.30
2022-12-05T02:46:29.905Z,86.40
2022-12-05T02:49:36.965Z,86.30
2022-12-05T02:52:42.157Z,86.30
2022-12-05T02:55:46.781Z,86.30
2022-12-05T02:58:54.146Z,86.40
2022-12-05T03:01:59.785Z,86.40
2022-12-05T03:05:16.151Z,86.40
2022-12-05T03:08:25.243Z,86.50
2022-12-05T03:11:32.841Z,86.50
2022-12-05T03:14:40.737Z,86.60
2022-12-05T03:17:53.606Z,86.50
2022-12-05T03:21:01.844Z,86.50
2022-12-05T03:24:09.210Z,86.60
2022-12-05T03:27:23.390Z,87.20
2022-12-05T03:30:27.039Z,86.60
2022-12-05T03:33:42.057Z,86.60
2022-12-05T03:36:50.297Z,86.50
2022-12-05T03:40:05.369Z,87.20
2022-12-05T03:43:14.204Z,86.60
2022-12-05T03:46:25.893Z,86.60
2022-12-05T03:49:34.967Z,86.70
2022-12-05T03:53:11.334Z,86.60
2022-12-05T03:56:10.091Z,86.60
2022-12-05T03:59:18.737Z,86.70
2022-12-05T04:02:29.737Z,86.70
2022-12-05T04:05:43.441Z,86.70
2022-12-05T04:08:52.434Z,86.80
2022-12-05T04:12:01.210Z,86.70
2022-12-05T04:15:09.637Z,86.70
2022-12-05T04:18:12.161Z,86.80
2022-12-05T04:21:32.865Z,86.80
2022-12-05T04:24:49.705Z,86.80
2022-12-05T04:28:01.122Z,86.90
2022-12-05T04:31:09.190Z,86.90
2022-12-05T04:34:15.879Z,86.80
2022-12-05T04:37:26.032Z,86.80
2022-12-05T04:40:36.041Z,86.90
2022-12-05T04:43:42.809Z,86.90
2022-12-05T04:46:49.617Z,86.90
2022-12-05T04:49:54.728Z,86.90
2022-12-05T04:53:02.029Z,86.90
2022-12-05T04:56:07.314Z,86.90
2022-12-05T04:59:11.585Z,86.90
2022-12-05T05:02:21.007Z,86.90
2022-12-05T05:05:25.235Z,86.90
2022-12-05T05:08:31.466Z,86.90
2022-12-05T05:11:36.774Z,87.60
2022-12-05T05:14:40.454Z,87.00
2022-12-05T05:17:44.214Z,87.00
2022-12-05T05:20:47.921Z,87.00
2022-12-05T05:23:53.803Z,87.10
2022-12-05T05:26:57.808Z,87.00
2022-12-05T05:30:01.812Z,87.00
2022-12-05T05:33:05.624Z,87.10
2022-12-05T05:36:11.621Z,87.10
2022-12-05T05:39:17.242Z,87.00
2022-12-05T05:42:20.988Z,87.10
2022-12-05T05:45:24.658Z,87.10
2022-12-05T05:48:28.358Z,87.10
2022-12-05T05:51:32.043Z,87.20
2022-12-05T05:54:37.699Z,87.10
2022-12-05T05:57:41.391Z,87.10
2022-12-05T06:00:45.108Z,87.10
2022-12-05T06:03:49.944Z,87.10
2022-12-05T06:06:53.831Z,87.10
2022-12-05T06:09:59.679Z,87.10
2022-12-05T06:13:03.587Z,87.10
2022-12-05T06:16:08.370Z,87.20
2022-12-05T06:19:12.051Z,87.20
2022-12-05T06:22:15.825Z,87.20
2022-12-05T06:25:21.505Z,87.20
2022-12-05T06:28:26.966Z,87.20
2022-12-05T06:31:31.133Z,87.20
2022-12-05T06:34:38.399Z,87.10
2022-12-05T06:37:42.149Z,87.10
2022-12-05T06:40:48.145Z,87.30
2022-12-05T06:44:00.094Z,87.30
2022-12-05T06:47:05.648Z,87.30
2022-12-05T06:50:09.862Z,87.20
2022-12-05T06:53:13.515Z,87.20
2022-12-05T06:56:21.021Z,87.20
2022-12-05T06:59:24.907Z,87.20
2022-12-05T07:02:26.555Z,87.20
2022-12-05T07:05:30.348Z,87.30
2022-12-05T07:08:33.965Z,87.10
2022-12-05T07:11:39.675Z,87.20
2022-12-05T07:14:48.577Z,87.10
2022-12-05T07:17:53.279Z,87.20
2022-12-05T07:21:15.932Z,87.20
2022-12-05T07:24:19.686Z,87.30
2022-12-05T07:27:27.881Z,87.40
2022-12-05T07:30:32.108Z,87.30
2022-12-05T07:33:35.909Z,87.30
2022-12-05T07:36:39.631Z,87.30
2022-12-05T07:39:43.757Z,87.30
2022-12-05T07:42:52.825Z,87.40
2022-12-05T07:45:56.634Z,87.40
2022-12-05T07:49:00.071Z,87.40
2022-12-05T07:52:03.795Z,87.40
2022-12-05T07:55:09.269Z,87.20
2022-12-05T07:58:14.888Z,87.30
2022-12-05T08:01:21.257Z,87.40
2022-12-05T08:04:25.087Z,87.40
2022-12-05T08:07:28.805Z,87.40
2022-12-05T08:10:32.779Z,88.00
2022-12-05T08:13:38.318Z,87.40
2022-12-05T08:16:42.113Z,87.40
2022-12-05T08:19:45.690Z,87.30
2022-12-05T08:22:49.381Z,87.30
2022-12-05T08:25:53.057Z,87.30
2022-12-05T08:29:00.549Z,87.30
2022-12-05T08:32:04.220Z,87.40
2022-12-05T08:35:09.078Z,87.50
2022-12-05T08:38:12.740Z,87.50
2022-12-05T08:41:18.669Z,87.50
2022-12-05T08:44:24.632Z,87.50
2022-12-05T08:47:28.713Z,87.50
2022-12-05T08:50:32.397Z,87.50
2022-12-05T08:53:42.501Z,87.60
2022-12-05T08:56:47.780Z,87.60
2022-12-05T08:59:53.429Z,87.60
2022-12-05T09:02:57.244Z,87.50
2022-12-05T09:06:07.131Z,87.50
2022-12-05T09:09:12.786Z,87.50
2022-12-05T09:12:16.744Z,87.40
2022-12-05T09:15:22.497Z,87.40
2022-12-05T09:18:26.200Z,87.50
2022-12-05T09:21:31.453Z,87.50
2022-12-05T09:24:35.151Z,87.50
2022-12-05T09:27:38.902Z,87.60
2022-12-05T09:30:44.870Z,87.60
2022-12-05T09:33:49.726Z,87.60
2022-12-05T09:37:10.307Z,87.40
2022-12-05T09:40:19.272Z,87.50
2022-12-05T09:43:28.882Z,87.50
2022-12-05T09:46:53.858Z,87.60
2022-12-05T09:50:01.443Z,87.60
2022-12-05T09:53:14.983Z,87.60
2022-12-05T09:56:26.503Z,87.60
2022-12-05T09:59:30.269Z,87.60
2022-12-05T10:02:46.557Z,87.60
2022-12-05T10:05:55.017Z,87.70
2022-12-05T10:09:27.545Z,87.70
2022-12-05T10:12:49.548Z,87.70
2022-12-05T10:15:57.588Z,87.60
2022-12-05T10:19:08.234Z,87.70
2022-12-05T10:22:20.520Z,87.60
2022-12-05T10:25:27.635Z,87.70
2022-12-05T10:28:36.004Z,87.60
2022-12-05T10:31:41.902Z,87.60
2022-12-05T10:34:47.915Z,87.70
2022-12-05T10:37:53.766Z,87.60
2022-12-05T10:41:00.712Z,87.60
2022-12-05T10:44:04.722Z,87.60
2022-12-05T10:47:09.579Z,87.60
2022-12-05T10:50:25.425Z,87.60
2022-12-05T10:53:33.950Z,87.60
2022-12-05T10:56:39.511Z,87.60
2022-12-05T10:59:49.140Z,87.60
2022-12-05T11:02:53.570Z,87.60
2022-12-05T11:06:02.648Z,87.60
2022-12-05T11:09:15.302Z,87.60
2022-12-05T11:12:21.010Z,87.60
2022-12-05T11:15:29.085Z,87.60
2022-12-05T11:18:35.926Z,87.70
2022-12-05T11:21:45.959Z,87.60
2022-12-05T11:24:49.665Z,87.60
2022-12-05T11:27:58.277Z,87.60
2022-12-05T11:31:07.993Z,87.60
2022-12-05T11:34:19.163Z,87.60
2022-12-05T11:37:28.312Z,87.60
2022-12-05T11:40:40.177Z,87.60
2022-12-05T11:43:55.196Z,87.70
2022-12-05T11:47:12.785Z,87.60
2022-12-05T11:50:26.379Z,87.60
2022-12-05T11:53:57.750Z,87.60
2022-12-05T11:57:06.743Z,87.60
2022-12-05T12:00:26.300Z,87.60
2022-12-05T12:03:47.519Z,87.70
2022-12-05T12:07:05.570Z,87.70
2022-12-05T12:10:22.860Z,87.80
2022-12-05T12:13:42.391Z,87.80
2022-12-05T12:16:55.154Z,87.80
2022-12-05T12:20:17.667Z,87.90
2022-12-05T12:23:37.192Z,87.90
2022-12-05T12:26:55.345Z,88.00
2022-12-05T12:30:07.813Z,88.00
2022-12-05T12:33:15.976Z,88.00
2022-12-05T12:36:24.770Z,88.00
2022-12-05T12:39:39.290Z,88.00
2022-12-05T12:42:57.040Z,88.00
2022-12-05T12:46:23.918Z,88.10
2022-12-05T12:49:42.882Z,88.10
2022-12-05T12:53:12.039Z,88.10
2022-12-05T12:56:27.784Z,88.10
2022-12-05T12:59:55.159Z,88.00
2022-12-05T13:03:05.083Z,88.10
2022-12-05T13:06:15.194Z,88.20
2022-12-05T13:09:26.147Z,88.10
2022-12-05T13:12:34.076Z,88.10
2022-12-05T13:15:44.027Z,88.20
2022-12-05T13:18:47.831Z,88.20
2022-12-05T13:21:51.889Z,88.20
2022-12-05T13:24:56.830Z,88.20
2022-12-05T13:28:03.025Z,88.30
2022-12-05T13:31:09.487Z,88.20
2022-12-05T13:34:46.765Z,88.30
2022-12-05T13:38:03.952Z,88.20
2022-12-05T13:41:21.463Z,88.20
2022-12-05T13:44:34.699Z,88.20
2022-12-05T13:47:56.252Z,88.20
2022-12-05T13:51:03.487Z,88.20
2022-12-05T13:54:14.656Z,88.30
2022-12-05T13:57:48.545Z,88.30
2022-12-05T14:00:52.691Z,88.30
2022-12-05T14:04:01.595Z,88.20
2022-12-05T14:07:05.323Z,88.20
2022-12-05T14:10:10.621Z,88.30
2022-12-05T14:13:43.066Z,88.30
2022-12-05T14:16:47.319Z,88.30
2022-12-05T14:20:04.483Z,88.30
2022-12-05T14:23:24.573Z,88.40
2022-12-05T14:26:52.848Z,88.30
2022-12-05T14:30:04.759Z,88.30
2022-12-05T14:33:15.813Z,88.30
2022-12-05T14:36:30.259Z,88.30
2022-12-05T14:39:46.264Z,88.30
2022-12-05T14:42:55.882Z,88.30
2022-12-05T14:46:04.998Z,88.30
2022-12-05T14:49:38.201Z,88.30
2022-12-05T14:52:46.507Z,88.30
2022-12-05T14:55:53.986Z,88.20
2022-12-05T14:59:01.133Z,88.20
2022-12-05T15:02:05.692Z,88.20
2022-12-05T15:05:22.364Z,88.20
2022-12-05T15:08:29.055Z,88.30
2022-12-05T15:11:34.387Z,88.30
2022-12-05T15:14:46.912Z,88.30
2022-12-05T15:17:55.162Z,88.40
2022-12-05T15:21:02.953Z,88.40
2022-12-05T15:24:14.956Z,88.40
2022-12-05T15:27:18.828Z,88.40
2022-12-05T15:30:22.575Z,88.40
2022-12-05T15:33:28.062Z,88.40
2022-12-05T15:36:37.431Z,88.30
2022-12-05T15:40:00.935Z,88.30
2022-12-05T15:43:30.802Z,88.40
2022-12-05T15:46:35.796Z,88.40
2022-12-05T15:49:39.515Z,88.40
2022-12-05T15:52:47.466Z,88.30
2022-12-05T15:55:57.411Z,88.40
2022-12-05T15:59:07.312Z,88.30
2022-12-05T16:02:16.536Z,88.30
2022-12-05T16:05:23.737Z,88.40
2022-12-05T16:08:34.984Z,88.30
2022-12-05T16:11:40.878Z,88.40
2022-12-05T16:14:59.439Z,88.40
2022-12-05T16:18:07.600Z,88.40
2022-12-05T16:21:34.448Z,88.40
2022-12-05T16:24:43.388Z,88.40
2022-12-05T16:28:00.121Z,88.50
2022-12-05T16:31:06.731Z,88.40
2022-12-05T16:34:17.735Z,88.40
2022-12-05T16:37:27.347Z,88.50
2022-12-05T16:40:31.107Z,88.40
2022-12-05T16:43:47.338Z,88.40
2022-12-05T16:46:51.111Z,88.40
2022-12-05T16:49:54.896Z,89.00
2022-12-05T16:53:16.274Z,88.40
2022-12-05T16:56:22.502Z,88.40
2022-12-05T16:59:35.621Z,88.40
2022-12-05T17:02:39.318Z,88.40
2022-12-05T17:05:43.091Z,88.40
2022-12-05T17:08:46.797Z,88.50
2022-12-05T17:11:54.477Z,88.40
2022-12-05T17:15:00.726Z,88.40
2022-12-05T17:18:13.429Z,88.40
2022-12-05T17:21:19.551Z,88.50
2022-12-05T17:24:24.205Z,88.50
2022-12-05T17:27:27.957Z,88.50
2022-12-05T17:30:34.773Z,88.50
2022-12-05T17:33:38.603Z,88.50
2022-12-05T17:36:42.367Z,88.50
2022-12-05T17:39:46.077Z,88.60
2022-12-05T17:42:49.965Z,88.50
2022-12-05T17:45:55.533Z,88.50
2022-12-05T17:49:02.271Z,88.50
2022-12-05T17:52:21.503Z,88.40
2022-12-05T17:55:27.951Z,88.40
2022-12-05T17:58:32.142Z,88.50
2022-12-05T18:01:38.162Z,88.50
2022-12-05T18:04:41.929Z,88.50
2022-12-05T18:07:46.661Z,88.60
2022-12-05T18:10:51.131Z,88.60
2022-12-05T18:13:55.920Z,88.60
2022-12-05T18:17:01.739Z,88.60
2022-12-05T18:20:06.275Z,88.60
2022-12-05T18:23:10.164Z,88.60
2022-12-05T18:26:16.351Z,88.70
2022-12-05T18:29:20.085Z,88.60
2022-12-05T18:32:26.070Z,88.60
2022-12-05T18:35:42.038Z,88.60
2022-12-05T18:38:51.484Z,88.60
2022-12-05T18:41:55.715Z,88.60
2022-12-05T18:44:59.862Z,88.60
2022-12-05T18:51:29.840Z,88.70
2022-12-05T18:54:33.829Z,88.60
2022-12-05T18:57:37.781Z,88.60
2022-12-05T19:00:41.440Z,88.60
2022-12-05T19:03:47.087Z,88.60
2022-12-05T19:06:53.051Z,88.50
2022-12-05T19:09:56.769Z,88.60
2022-12-05T19:13:00.512Z,88.60
2022-12-05T19:16:04.491Z,88.70
2022-12-05T19:19:12.170Z,88.70
2022-12-05T19:22:15.844Z,88.70
2022-12-05T19:25:19.602Z,88.70
2022-12-05T19:28:23.394Z,88.70
2022-12-05T19:31:28.687Z,88.70
2022-12-05T19:34:35.443Z,88.70
2022-12-05T19:37:39.198Z,88.70
2022-12-05T19:40:42.848Z,88.70
2022-12-05T19:43:49.305Z,88.70
2022-12-05T19:46:54.345Z,88.70
2022-12-05T19:50:00.569Z,88.60
2022-12-05T19:53:04.412Z,88.60
2022-12-05T19:56:10.254Z,88.60
2022-12-05T19:59:16.624Z,88.60
2022-12-05T20:02:20.414Z,88.70
2022-12-05T20:05:25.947Z,88.70
2022-12-05T20:08:29.693Z,88.70
2022-12-05T20:11:33.570Z,88.60
2022-12-05T20:14:37.080Z,88.60
2022-12-05T20:17:40.801Z,88.70
2022-12-05T20:20:46.460Z,88.60
2022-12-05T20:23:50.870Z,88.60
2022-12-05T20:26:54.661Z,88.70
2022-12-05T20:29:58.555Z,88.70
2022-12-05T20:33:02.514Z,88.70
2022-12-05T20:36:10.613Z,88.70
2022-12-05T20:39:16.322Z,88.70
2022-12-05T20:42:20.098Z,88.80
2022-12-05T20:45:23.894Z,88.70
2022-12-05T20:48:27.605Z,88.80
2022-12-05T20:51:35.835Z,88.80
2022-12-05T20:54:39.561Z,88.80
2022-12-05T20:57:43.234Z,88.80
2022-12-05T21:00:48.107Z,88.80
2022-12-05T21:03:53.270Z,88.80
2022-12-05T21:06:58.931Z,88.80
2022-12-05T21:10:07.885Z,88.80
2022-12-05T21:13:12.035Z,88.80
2022-12-05T21:16:17.917Z,88.80
2022-12-05T21:19:21.924Z,88.80
2022-12-05T21:22:28.356Z,88.70
2022-12-05T21:25:32.273Z,88.80
2022-12-05T21:28:36.898Z,88.90
2022-12-05T21:31:42.693Z,88.80
2022-12-05T21:34:46.559Z,88.80
2022-12-05T21:37:52.503Z,88.80
2022-12-05T21:40:56.255Z,88.80
2022-12-05T21:44:00.110Z,88.60
2022-12-05T21:47:03.541Z,88.70
2022-12-05T21:50:08.821Z,88.70
2022-12-05T21:53:14.578Z,88.70
2022-12-05T21:56:22.086Z,88.70
2022-12-05T21:59:26.503Z,88.80
2022-12-05T22:02:31.402Z,88.80
2022-12-05T22:05:35.294Z,88.80
2022-12-05T22:08:41.069Z,88.80
2022-12-05T22:11:44.866Z,88.80
2022-12-05T22:14:48.355Z,88.80
2022-12-05T22:17:52.042Z,88.80
2022-12-05T22:20:59.287Z,88.70
2022-12-05T22:24:05.290Z,88.80
2022-12-05T22:27:09.234Z,88.90
2022-12-05T22:30:13.081Z,88.80
2022-12-05T22:33:16.826Z,88.80
2022-12-05T22:36:22.479Z,88.70
2022-12-05T22:39:28.131Z,88.80
2022-12-05T22:42:31.848Z,88.80
2022-12-05T22:45:37.169Z,88.80
2022-12-05T22:48:43.573Z,88.80
2022-12-05T22:51:47.381Z,88.80
2022-12-05T22:54:52.999Z,88.80
2022-12-05T22:57:56.780Z,88.90
2022-12-05T23:01:09.178Z,88.90
2022-12-05T23:04:13.614Z,88.90
2022-12-05T23:07:17.500Z,89.00
2022-12-05T23:10:24.245Z,88.90
2022-12-05T23:13:28.282Z,88.90
2022-12-05T23:16:34.032Z,88.90
2022-12-05T23:19:37.958Z,88.90
2022-12-05T23:22:41.896Z,88.90
2022-12-05T23:25:47.481Z,88.90
2022-12-05T23:28:51.828Z,89.00
2022-12-05T23:31:55.735Z,88.80
2022-12-05T23:34:59.740Z,88.90
2022-12-05T23:38:03.330Z,88.90
2022-12-05T23:41:12.021Z,88.90
2022-12-05T23:44:15.864Z,88.80
2022-12-05T23:47:19.531Z,88.90
2022-12-05T23:50:23.418Z,88.90
2022-12-05T23:53:27.155Z,88.80
2022-12-05T23:56:35.098Z,88.80
2022-12-05T23:59:38.989Z,88.80
